Benson, Minnesota
Current Conditions -  °F | °C
As of 11:14 AM on Saturday 25 Oct 2014 (Local Time) from KBBB Reporting Station
Clear Clear  
Wind Chill: 57°   Ceiling: Unl
Heat Index: 57°   Visibility: 10mi
Dew Point: 36°   Wind: 12mph
Humidity: 44%   Direction: 10°N
Pressure: 30.12"   Gusts: NA
Location:  45.31°N, 95.6°W
Report Text: KBBB 251614Z AUTO 01010KT 10SM CLR 14/02 A3012 RMK AO2
Loading
Personal Weather Stations






























Interactive Weather Map
Tropical Storm Tracking
New forecast layout! Learn more

10-Day Weather Forecast

Advertisements
Track Severe Weather on mobile